Elk Ranch, Arkansas
Current Conditions -  °F | °C
As of 8:59 PM on Thursday 18 Dec 2014 (Local Time) from KROG Reporting Station
Haze Haze  
Wind Chill: 39°   Ceiling: 200
Heat Index: 39°   Visibility: 3mi
Dew Point: 38°   Wind: 3mph
Humidity: 96%   Direction: 50°NE
Pressure: 30.2"   Gusts: NA
Location:  36.4036°N, 93.7443°W
Report Text: KROG 190259Z AUTO 05003KT 3SM BR OVC002 04/03 A3020 RMK AO2 SLP233 T00390033 51003
Loading
Personal Weather Stations






























Interactive Weather Map New forecast layout! Learn more

10-Day Weather Forecast

Advertisements
Track Severe Weather on mobile